Blue Mound, Texas
Current Conditions -  °F | °C
As of 9:12 PM on Friday 21 Nov 2014 (Local Time) from KAFW Reporting Station
Overcast Overcast  
Wind Chill: 65°   Ceiling: 1000
Heat Index: 65°   Visibility: 10mi
Dew Point: 62°   Wind: 14mph
Humidity: 90%   Direction: 160°SSE
Pressure: 30.06"   Gusts: NA
Location:  32.9103°N, 97.3722°W
Report Text: KAFW 220312Z 16012KT 10SM OVC010 18/17 A3006 RMK AO2 T01830167
Loading
Personal Weather Stations






























Interactive Weather Map New forecast layout! Learn more

10-Day Weather Forecast

Advertisements
Track Severe Weather on mobile